Time;durP1;ratioP1;P1;durP2;ratioP2;P2;SDS_P1;SDS_P2;PMS_P1;PMS_P2;Temp;Humidity;BMP_temperature;BMP_pressure;BME280_temperature;BME280_humidity;BME280_pressure;Samples;Min_cycle;Max_cycle;Signal;HPM_P1;HPM_P2
2021/07/21 00:00:12;;;;;;;14.57;9.17;;;;;;;15.11;73.32;97041.13;3579085;39;20475;-75
2021/07/21 00:02:40;;;;;;;21.53;8.80;;;;;;;14.97;73.74;97036.09;3578609;39;20655;-74
2021/07/21 00:05:09;;;;;;;18.10;8.00;;;;;;;14.94;73.51;97033.72;3580690;39;20451;-74
2021/07/21 00:07:37;;;;;;;11.63;6.70;;;;;;;14.86;73.77;97036.09;3583358;39;20718;-72
2021/07/21 00:10:08;;;;;;;18.50;8.60;;;;;;;14.81;73.77;97032.03;3580123;39;20845;-73
2021/07/21 00:15:25;;;;;;;15.10;8.67;;;;;;;14.75;73.60;97036.97;3577282;39;20484;-73
2021/07/21 00:18:00;;;;;;;15.50;9.30;;;;;;;14.70;73.72;97033.84;3580251;39;20445;-72
2021/07/21 00:20:29;;;;;;;18.10;8.23;;;;;;;14.52;74.46;97036.91;3586262;39;20520;-73
2021/07/21 00:22:58;;;;;;;15.27;8.23;;;;;;;14.38;75.41;97038.00;3582581;39;20427;-74
2021/07/21 00:25:26;;;;;;;13.40;8.47;;;;;;;14.46;75.17;97036.56;3582116;39;20465;-75
2021/07/21 00:27:56;;;;;;;19.73;8.67;;;;;;;14.44;74.72;97032.28;3580003;39;20814;-74
2021/07/21 00:30:24;;;;;;;14.87;8.40;;;;;;;14.44;74.83;97028.78;3579604;39;20891;-74
2021/07/21 00:32:53;;;;;;;20.80;8.87;;;;;;;14.33;75.04;97021.72;3583697;39;20526;-75
2021/07/21 00:35:21;;;;;;;21.33;9.47;;;;;;;14.37;75.12;97022.34;3580916;39;20457;-74
2021/07/21 00:37:49;;;;;;;14.30;8.70;;;;;;;14.39;75.12;97021.25;3582488;39;20435;-75
2021/07/21 00:40:18;;;;;;;20.67;8.50;;;;;;;14.34;75.18;97018.13;3579019;39;20452;-75
2021/07/21 00:42:46;;;;;;;15.03;7.90;;;;;;;14.17;76.05;97023.84;3581253;39;20805;-74
2021/07/21 00:45:15;;;;;;;14.20;8.27;;;;;;;14.07;76.66;97022.88;3583970;39;20477;-76
2021/07/21 00:47:43;;;;;;;18.87;9.73;;;;;;;14.14;76.21;97021.47;3585740;39;20833;-73
2021/07/21 00:50:12;;;;;;;18.40;8.37;;;;;;;13.95;76.54;97028.09;3582808;39;20475;-75
2021/07/21 00:52:41;;;;;;;20.67;9.77;;;;;;;13.86;77.24;97023.56;3582413;39;20436;-75
2021/07/21 00:55:11;;;;;;;13.63;8.30;;;;;;;13.94;77.36;97022.97;3579260;39;20457;-75
2021/07/21 00:57:40;;;;;;;15.73;8.10;;;;;;;13.76;77.52;97015.50;3581910;39;20552;-72
2021/07/21 01:00:11;;;;;;;15.87;8.27;;;;;;;13.83;77.15;97016.72;3582029;39;20885;-74
2021/07/21 01:02:42;;;;;;;16.20;8.10;;;;;;;13.88;77.12;97023.41;3583405;39;20913;-75
2021/07/21 01:05:13;;;;;;;13.40;7.73;;;;;;;13.88;77.02;97020.78;3580408;39;20868;-75
2021/07/21 01:07:45;;;;;;;14.00;8.30;;;;;;;13.94;76.81;97013.28;3581737;39;20525;-75
2021/07/21 01:10:13;;;;;;;14.47;8.60;;;;;;;13.99;76.39;97021.66;3580527;39;20495;-75
2021/07/21 01:12:47;;;;;;;16.53;8.50;;;;;;;13.62;78.28;97019.19;3583380;39;20446;-77
2021/07/21 01:15:18;;;;;;;18.97;8.37;;;;;;;13.49;78.56;97021.03;3581583;39;20897;-74
2021/07/21 01:17:51;;;;;;;14.67;8.40;;;;;;;13.67;78.16;97021.47;3579309;39;20907;-77
2021/07/21 01:20:48;;;;;;;12.93;7.63;;;;;;;13.78;77.27;97012.75;3578531;39;20467;-77
2021/07/21 01:23:30;;;;;;;17.80;9.37;;;;;;;13.76;76.95;97010.25;3579551;39;20518;-72
2021/07/21 01:26:04;;;;;;;21.00;8.77;;;;;;;13.68;77.15;96998.59;3580651;39;20445;-73
2021/07/21 01:28:34;;;;;;;17.47;8.53;;;;;;;13.73;77.16;97007.84;3580248;39;20451;-72
2021/07/21 01:31:09;;;;;;;15.70;8.30;;;;;;;13.51;77.57;97013.88;3579719;39;20813;-75
2021/07/21 01:33:38;;;;;;;15.57;7.90;;;;;;;13.54;77.37;97013.63;3584373;39;20506;-76
2021/07/21 01:36:13;;;;;;;13.27;7.60;;;;;;;13.53;77.44;97004.06;3578728;39;20536;-74
2021/07/21 01:38:45;;;;;;;15.93;7.93;;;;;;;13.55;77.28;97012.69;3583273;39;20482;-75
2021/07/21 01:41:15;;;;;;;19.77;8.77;;;;;;;13.57;77.47;97018.66;3579782;39;20556;-74
2021/07/21 01:43:47;;;;;;;14.90;8.10;;;;;;;13.51;77.26;97016.50;3578676;39;20425;-76
2021/07/21 01:46:20;;;;;;;16.47;7.47;;;;;;;13.47;77.28;97008.94;3576239;39;20679;-74
2021/07/21 01:48:50;;;;;;;17.53;8.37;;;;;;;13.42;77.20;97002.22;3577029;40;20433;-78
2021/07/21 01:51:23;;;;;;;12.93;7.63;;;;;;;13.31;77.41;96993.44;3576535;39;20477;-74
2021/07/21 01:53:52;;;;;;;14.70;8.63;;;;;;;13.28;77.43;96993.66;3578722;39;20917;-75
2021/07/21 01:56:22;;;;;;;15.27;9.17;;;;;;;13.30;77.67;97007.56;3579461;39;20675;-76
2021/07/21 01:58:53;;;;;;;19.53;8.00;;;;;;;13.30;77.77;97005.75;3583060;39;20440;-74
2021/07/21 02:01:25;;;;;;;17.77;8.37;;;;;;;13.28;77.81;97004.16;3579125;39;21285;-76
2021/07/21 02:03:56;;;;;;;14.83;6.93;;;;;;;13.22;77.91;96998.38;3581152;39;20858;-74
2021/07/21 02:06:25;;;;;;;14.07;7.30;;;;;;;13.19;78.49;97008.28;3578843;39;21124;-76
2021/07/21 02:08:56;;;;;;;16.50;7.83;;;;;;;13.25;78.12;97005.25;3579935;39;20450;-74
2021/07/21 02:11:25;;;;;;;16.73;8.33;;;;;;;13.21;78.31;97003.75;3580497;39;20453;-76
2021/07/21 02:13:57;;;;;;;16.23;8.40;;;;;;;13.17;78.25;97004.94;3580998;39;20428;-74
2021/07/21 02:16:26;;;;;;;13.50;8.53;;;;;;;13.11;77.96;97000.97;3581295;39;20920;-76
2021/07/21 02:18:55;;;;;;;17.97;9.30;;;;;;;13.07;78.09;96999.50;3579750;39;20455;-75
2021/07/21 02:21:24;;;;;;;14.40;7.43;;;;;;;13.08;78.16;97000.38;3580489;39;20450;-74
2021/07/21 02:23:54;;;;;;;15.80;7.40;;;;;;;13.06;78.14;97003.09;3584198;39;20450;-74
2021/07/21 02:26:22;;;;;;;22.50;8.50;;;;;;;13.03;78.46;97001.53;3581307;39;20806;-74
2021/07/21 02:28:50;;;;;;;12.10;7.57;;;;;;;12.93;78.60;96995.25;3580711;39;20809;-73
2021/07/21 02:31:26;;;;;;;19.20;9.70;;;;;;;12.89;78.40;96995.59;3578889;39;20541;-76
2021/07/21 02:33:56;;;;;;;15.90;8.17;;;;;;;12.99;78.38;96996.59;3577138;40;21221;-75
2021/07/21 02:36:26;;;;;;;19.13;7.93;;;;;;;12.94;78.48;96993.47;3578210;39;20453;-74
2021/07/21 02:38:54;;;;;;;15.10;7.93;;;;;;;12.77;78.39;96976.28;3581357;39;20459;-77
2021/07/21 02:41:22;;;;;;;23.33;7.70;;;;;;;12.81;78.67;96998.75;3581026;39;20464;-76
2021/07/21 02:43:50;;;;;;;19.20;8.30;;;;;;;12.81;78.73;97001.38;3578923;39;20842;-73
2021/07/21 02:46:17;;;;;;;17.40;7.67;;;;;;;12.80;78.85;96997.06;3578726;39;20715;-73
2021/07/21 02:48:48;;;;;;;14.00;8.23;;;;;;;12.75;79.10;97000.03;3581748;39;20456;-74
2021/07/21 02:51:28;;;;;;;16.50;9.13;;;;;;;12.78;79.11;97005.09;3582371;39;20483;-74
2021/07/21 02:54:03;;;;;;;15.17;7.73;;;;;;;12.74;79.11;97003.63;3584900;39;20962;-74
2021/07/21 02:56:35;;;;;;;15.93;8.07;;;;;;;12.75;78.90;97001.84;3578806;39;20769;-75
2021/07/21 02:59:09;;;;;;;19.20;8.20;;;;;;;12.75;78.68;97002.66;3581984;39;20791;-73
2021/07/21 03:01:45;;;;;;;15.73;7.73;;;;;;;12.56;78.74;97004.91;3582242;39;20821;-76
2021/07/21 03:04:18;;;;;;;17.53;8.03;;;;;;;12.58;78.89;97000.38;3580803;39;20467;-71
2021/07/21 03:06:53;;;;;;;13.97;8.47;;;;;;;12.58;78.84;97005.63;3581678;39;20917;-74
2021/07/21 03:09:23;;;;;;;15.13;8.00;;;;;;;12.56;78.82;97004.91;3580871;39;20426;-73
2021/07/21 03:12:00;;;;;;;14.47;7.30;;;;;;;12.55;78.71;97011.13;3583338;39;20748;-75
2021/07/21 03:14:28;;;;;;;11.40;6.77;;;;;;;12.46;79.09;97008.16;3580786;39;20975;-73
2021/07/21 03:17:02;;;;;;;15.67;8.00;;;;;;;12.44;79.17;97012.69;3582170;39;20725;-76
2021/07/21 03:19:32;;;;;;;13.70;7.03;;;;;;;12.41;79.30;97014.72;3579917;39;20442;-74
2021/07/21 03:22:01;;;;;;;13.50;7.17;;;;;;;12.36;79.51;97020.28;3580386;39;20959;-75
2021/07/21 03:24:30;;;;;;;12.90;7.13;;;;;;;12.36;79.11;97006.31;3585126;39;21105;-75
2021/07/21 03:27:00;;;;;;;11.33;7.03;;;;;;;12.38;78.90;97010.50;3580486;39;20886;-75
2021/07/21 03:29:31;;;;;;;15.47;8.27;;;;;;;12.35;79.36;97015.13;3579940;39;20897;-74
2021/07/21 03:32:00;;;;;;;16.40;7.50;;;;;;;12.31;79.29;97019.78;3578003;39;20975;-76
2021/07/21 03:34:29;;;;;;;15.80;8.10;;;;;;;12.35;79.07;97023.84;3577741;39;20810;-74
2021/07/21 03:37:00;;;;;;;17.27;9.17;;;;;;;12.27;79.01;97015.69;3584165;39;20784;-75
2021/07/21 03:39:28;;;;;;;14.40;7.83;;;;;;;12.17;79.77;97018.09;3581321;39;20483;-74
2021/07/21 03:41:57;;;;;;;15.70;7.87;;;;;;;12.20;79.86;97030.16;3580433;39;20525;-76
2021/07/21 03:44:26;;;;;;;16.43;7.83;;;;;;;12.23;79.70;97020.28;3579334;39;20519;-74
2021/07/21 03:46:54;;;;;;;15.33;8.10;;;;;;;12.21;79.92;97016.06;3579462;39;20547;-74
2021/07/21 03:49:22;;;;;;;15.57;7.73;;;;;;;12.23;80.08;97027.31;3583536;39;20448;-73
2021/07/21 03:51:50;;;;;;;16.00;8.50;;;;;;;12.16;80.14;97007.69;3583929;39;20536;-74
2021/07/21 03:54:21;;;;;;;19.83;8.67;;;;;;;12.19;80.10;97017.97;3580923;39;20591;-73
2021/07/21 03:56:51;;;;;;;16.37;8.70;;;;;;;12.17;79.88;97027.72;3580426;39;20880;-74
2021/07/21 03:59:20;;;;;;;13.47;7.53;;;;;;;12.27;79.58;97026.19;3578726;39;20466;-73
2021/07/21 04:01:50;;;;;;;16.93;8.03;;;;;;;12.28;79.57;97030.47;3583181;39;20818;-75
2021/07/21 04:04:21;;;;;;;13.70;7.87;;;;;;;12.25;79.41;97036.78;3584095;39;20541;-74
2021/07/21 04:06:51;;;;;;;20.93;8.10;;;;;;;12.28;78.94;97033.09;3583805;39;20525;-75
2021/07/21 04:09:23;;;;;;;16.17;8.47;;;;;;;12.22;79.43;97036.16;3579878;39;20429;-77
2021/07/21 04:11:52;;;;;;;13.13;6.90;;;;;;;12.13;79.66;97036.78;3580757;40;20447;-76
2021/07/21 04:14:21;;;;;;;13.90;8.03;;;;;;;12.11;79.98;97029.00;3581035;39;20441;-77
2021/07/21 04:16:50;;;;;;;15.93;9.37;;;;;;;12.10;80.63;97047.50;3583815;39;20449;-77
2021/07/21 04:19:19;;;;;;;14.43;8.00;;;;;;;12.15;80.82;97048.88;3582095;39;20635;-76
2021/07/21 04:21:49;;;;;;;15.50;8.40;;;;;;;12.22;80.51;97049.28;3583314;39;20480;-76
2021/07/21 04:24:19;;;;;;;17.90;7.53;;;;;;;11.94;81.21;97050.31;3582099;39;20431;-75
2021/07/21 04:26:49;;;;;;;17.70;8.00;;;;;;;12.18;80.64;97047.81;3585238;39;20441;-78
2021/07/21 04:29:19;;;;;;;16.67;8.17;;;;;;;12.41;79.99;97035.72;3582581;39;20511;-76
2021/07/21 04:31:48;;;;;;;15.40;8.30;;;;;;;12.49;79.79;97041.28;3582951;39;20450;-76
2021/07/21 04:34:17;;;;;;;15.23;8.17;;;;;;;12.55;79.48;97048.75;3582130;39;20691;-78
2021/07/21 04:36:46;;;;;;;15.83;8.50;;;;;;;12.56;79.47;97042.53;3580382;39;20963;-76
2021/07/21 04:39:17;;;;;;;17.03;8.27;;;;;;;12.60;80.25;97043.16;3580931;39;20781;-77
2021/07/21 04:41:45;;;;;;;13.53;7.17;;;;;;;12.52;78.83;97045.47;3581380;39;20834;-77
2021/07/21 04:44:16;;;;;;;13.40;7.70;;;;;;;12.52;77.36;97050.72;3580190;39;20458;-79
2021/07/21 04:46:45;;;;;;;13.90;7.00;;;;;;;12.43;77.46;97046.97;3581521;39;20459;-77
2021/07/21 04:49:16;;;;;;;19.07;7.27;;;;;;;12.24;78.38;97039.50;3580452;39;20882;-76
2021/07/21 04:51:47;;;;;;;13.03;6.80;;;;;;;12.01;79.70;97041.91;3600346;39;21224;-76
2021/07/21 04:54:16;;;;;;;19.83;8.07;;;;;;;12.16;79.82;97054.94;3580236;39;21123;-77
2021/07/21 04:56:44;;;;;;;16.03;8.33;;;;;;;12.54;78.21;97060.19;3580681;39;20558;-76
2021/07/21 04:59:12;;;;;;;19.80;6.93;;;;;;;12.68;76.56;97053.13;3579821;39;20467;-77
2021/07/21 05:01:41;;;;;;;16.53;8.33;;;;;;;12.74;76.18;97056.19;3579089;39;20454;-76
2021/07/21 05:04:10;;;;;;;16.23;8.33;;;;;;;12.43;77.25;97046.97;3582331;39;20852;-76
2021/07/21 05:06:38;;;;;;;15.07;7.27;;;;;;;12.56;78.05;97058.28;3583983;39;20834;-76
2021/07/21 05:09:06;;;;;;;20.63;7.47;;;;;;;13.02;76.08;97062.13;3579640;40;20813;-75
2021/07/21 05:11:34;;;;;;;18.13;7.17;;;;;;;13.19;75.27;97061.75;3578778;39;20546;-76
2021/07/21 05:14:03;;;;;;;10.40;6.23;;;;;;;13.28;75.29;97069.91;3580610;39;20744;-76
2021/07/21 05:16:32;;;;;;;16.43;8.00;;;;;;;13.33;76.13;97063.41;3588580;39;20522;-75
2021/07/21 05:19:01;;;;;;;140.63;81.33;;;;;;;13.54;75.78;97070.69;3582776;39;20442;-76
2021/07/21 05:21:31;;;;;;;37.53;16.67;;;;;;;13.58;75.51;97073.00;3597960;39;20452;-77
2021/07/21 05:23:59;;;;;;;18.50;7.80;;;;;;;13.63;75.26;97076.09;3580352;39;20550;-77
2021/07/21 05:26:26;;;;;;;14.13;8.30;;;;;;;13.14;76.48;97077.00;3581454;39;20458;-74
2021/07/21 05:28:55;;;;;;;23.40;9.10;;;;;;;13.26;76.88;97072.66;3581124;39;20663;-74
2021/07/21 05:31:23;;;;;;;23.63;8.70;;;;;;;13.51;76.27;97082.28;3580480;39;20475;-73
2021/07/21 05:33:51;;;;;;;16.20;8.30;;;;;;;13.15;77.13;97089.22;3580234;39;20556;-74
2021/07/21 05:36:21;;;;;;;20.10;8.37;;;;;;;13.69;75.79;97081.88;3579842;39;20527;-74
2021/07/21 05:38:49;;;;;;;18.03;8.30;;;;;;;13.16;77.76;97083.00;3579815;39;20435;-72
2021/07/21 05:41:17;;;;;;;25.73;9.73;;;;;;;13.68;76.67;97085.44;3585685;39;21200;-71
2021/07/21 05:43:44;;;;;;;20.57;9.23;;;;;;;13.84;75.28;97091.28;3583053;39;20450;-70
2021/07/21 05:46:13;;;;;;;15.60;7.47;;;;;;;13.82;75.48;97094.03;3579250;39;20492;-74
2021/07/21 05:48:41;;;;;;;19.27;9.73;;;;;;;14.09;74.88;97095.53;3579771;39;20847;-74
2021/07/21 05:51:09;;;;;;;20.10;8.67;;;;;;;14.50;74.11;97099.44;3579402;39;20459;-75
2021/07/21 05:53:38;;;;;;;19.43;9.47;;;;;;;14.62;73.99;97095.06;3582737;39;20824;-75
2021/07/21 05:56:06;;;;;;;226.03;117.70;;;;;;;14.55;74.48;97094.69;3576339;39;20914;-74
2021/07/21 05:58:34;;;;;;;27.07;12.43;;;;;;;14.71;74.15;97099.63;3581767;39;20748;-74
2021/07/21 06:01:02;;;;;;;16.87;8.90;;;;;;;14.82;74.32;97099.66;3578160;39;20998;-75
2021/07/21 06:03:30;;;;;;;13.70;7.60;;;;;;;15.00;74.09;97105.25;3583583;39;20908;-75
2021/07/21 06:05:58;;;;;;;18.93;8.33;;;;;;;15.46;72.20;97103.41;3585494;39;20779;-73
2021/07/21 06:08:26;;;;;;;16.47;8.43;;;;;;;15.96;71.19;97109.03;3581920;39;20429;-73
2021/07/21 06:10:55;;;;;;;18.57;9.10;;;;;;;16.21;69.53;97107.84;3578991;39;20484;-74
2021/07/21 06:13:25;;;;;;;19.23;8.43;;;;;;;16.13;70.00;97112.06;3579908;39;20490;-74
2021/07/21 06:15:53;;;;;;;21.03;7.87;;;;;;;16.58;69.49;97110.03;3580616;39;20829;-74
2021/07/21 06:18:22;;;;;;;318.53;188.07;;;;;;;16.95;68.10;97112.16;3588799;39;20476;-73
2021/07/21 06:20:49;;;;;;;105.07;52.50;;;;;;;17.12;67.20;97105.41;3584576;39;20565;-73
2021/07/21 06:23:17;;;;;;;23.90;13.80;;;;;;;16.69;68.49;97116.19;3584601;39;20877;-73
2021/07/21 06:25:45;;;;;;;16.90;9.10;;;;;;;17.35;66.83;97116.63;3578951;39;20456;-74
2021/07/21 06:28:16;;;;;;;15.10;7.90;;;;;;;17.45;65.69;97118.47;3582279;39;20498;-74
2021/07/21 06:30:44;;;;;;;23.30;8.23;;;;;;;17.01;67.01;97124.03;3583181;39;20832;-74
2021/07/21 06:33:16;;;;;;;17.03;8.17;;;;;;;17.56;64.93;97126.28;3581178;39;20863;-74
2021/07/21 06:35:44;;;;;;;16.07;7.80;;;;;;;16.56;68.00;97126.97;3580130;39;20573;-74
2021/07/21 06:38:13;;;;;;;14.10;8.17;;;;;;;17.12;67.35;97123.94;3579940;39;20437;-73
2021/07/21 06:40:41;;;;;;;14.83;7.60;;;;;;;17.01;65.85;97126.66;3580057;39;20460;-74
2021/07/21 06:43:09;;;;;;;18.70;8.20;;;;;;;17.64;65.59;97134.41;3583301;39;20942;-73
2021/07/21 06:45:38;;;;;;;13.53;7.57;;;;;;;17.99;65.78;97125.13;3575708;39;20485;-75
2021/07/21 06:48:07;;;;;;;39.80;21.37;;;;;;;17.74;64.99;97134.44;3577397;39;21130;-74
2021/07/21 06:50:35;;;;;;;26.20;14.50;;;;;;;18.44;63.14;97136.97;3577864;39;20560;-73
2021/07/21 06:53:04;;;;;;;23.00;8.03;;;;;;;18.64;62.74;97140.41;3586751;39;20506;-74
2021/07/21 06:55:32;;;;;;;13.73;8.50;;;;;;;18.57;63.46;97140.97;3582760;39;20472;-74
2021/07/21 06:58:01;;;;;;;18.63;8.30;;;;;;;19.17;61.25;97134.56;3578511;39;20439;-74
2021/07/21 07:00:30;;;;;;;18.20;8.73;;;;;;;19.26;59.76;97135.50;3576441;39;20464;-73
2021/07/21 07:03:00;;;;;;;17.57;7.90;;;;;;;19.44;61.10;97146.16;3579921;39;20507;-72
2021/07/21 07:05:28;;;;;;;14.37;7.80;;;;;;;19.14;60.77;97145.47;3582868;39;20471;-71
2021/07/21 07:07:56;;;;;;;116.10;62.20;;;;;;;19.60;60.21;97150.84;3583002;39;20432;-73
2021/07/21 07:10:24;;;;;;;15.77;10.27;;;;;;;18.83;61.53;97142.22;3580310;39;20581;-72
2021/07/21 07:12:52;;;;;;;18.27;8.83;;;;;;;19.56;60.36;97150.28;3579334;39;20463;-71
2021/07/21 07:15:19;;;;;;;22.37;9.90;;;;;;;19.47;58.98;97152.03;3582293;39;20838;-72
2021/07/21 07:17:47;;;;;;;17.87;8.37;;;;;;;19.74;59.12;97164.50;3583438;39;20521;-71
2021/07/21 07:20:17;;;;;;;11.87;7.40;;;;;;;19.83;58.92;97152.13;3581763;39;20546;-71
2021/07/21 07:22:45;;;;;;;15.60;8.17;;;;;;;20.41;57.90;97139.38;3584410;39;20897;-72
2021/07/21 07:25:13;;;;;;;14.73;8.60;;;;;;;20.60;56.73;97155.19;3582358;39;20457;-72
2021/07/21 07:27:41;;;;;;;12.63;7.40;;;;;;;19.14;60.80;97148.13;3583342;39;20547;-70
2021/07/21 07:30:14;;;;;;;19.67;8.50;;;;;;;20.16;57.65;97147.13;3585630;39;20468;-71
2021/07/21 07:32:42;;;;;;;14.07;7.17;;;;;;;20.84;55.46;97143.03;3582391;39;20824;-71
2021/07/21 07:35:11;;;;;;;138.43;76.43;;;;;;;21.02;55.59;97148.31;3577932;39;20488;-72
2021/07/21 07:37:40;;;;;;;16.87;9.47;;;;;;;21.28;54.36;97137.59;3581479;39;20439;-71
2021/07/21 07:40:09;;;;;;;13.03;8.60;;;;;;;21.45;53.64;97133.22;3577763;39;20452;-71
2021/07/21 07:42:37;;;;;;;16.50;7.13;;;;;;;21.72;52.63;97132.16;3578438;39;20444;-72
2021/07/21 07:45:07;;;;;;;10.57;7.33;;;;;;;21.79;52.43;97124.31;3584275;39;20577;-72
2021/07/21 07:47:35;;;;;;;13.70;8.23;;;;;;;22.04;52.70;97143.88;3588332;39;20453;-72
2021/07/21 07:50:05;;;;;;;11.63;7.53;;;;;;;20.44;55.23;97139.03;3578786;39;21117;-72
2021/07/21 07:52:33;;;;;;;175.27;115.07;;;;;;;21.50;54.03;97134.41;3579306;39;20742;-72
2021/07/21 07:55:05;;;;;;;58.20;35.47;;;;;;;22.06;52.13;97134.69;3582186;39;20926;-73
2021/07/21 07:57:33;;;;;;;13.63;7.43;;;;;;;22.14;53.53;97127.72;3582335;39;20440;-73
2021/07/21 08:00:01;;;;;;;18.90;7.20;;;;;;;22.21;51.88;97124.22;3581205;39;20432;-72
2021/07/21 08:02:29;;;;;;;14.37;7.33;;;;;;;22.00;52.55;97130.03;3581268;39;21191;-71
2021/07/21 08:04:57;;;;;;;17.57;7.80;;;;;;;22.33;52.79;97124.75;3577965;39;20479;-72
2021/07/21 08:07:28;;;;;;;14.37;8.13;;;;;;;22.64;51.58;97127.56;3580416;39;20893;-72
2021/07/21 08:09:56;;;;;;;34.63;7.93;;;;;;;22.95;50.33;97124.16;3581445;39;20838;-72
2021/07/21 08:12:26;;;;;;;18.13;8.20;;;;;;;23.01;50.64;97126.19;3583127;39;20425;-72
2021/07/21 08:14:54;;;;;;;35.97;7.80;;;;;;;23.21;49.51;97131.16;3582715;39;20493;-71
2021/07/21 08:17:22;;;;;;;21.50;8.20;;;;;;;23.19;49.59;97122.47;3578110;39;20467;-72
2021/07/21 08:19:50;;;;;;;41.63;8.83;;;;;;;23.33;50.17;97128.94;3582626;39;20472;-72
2021/07/21 08:22:18;;;;;;;13.67;7.07;;;;;;;22.98;50.26;97126.50;3580107;39;20462;-73
2021/07/21 08:24:46;;;;;;;11.90;7.93;;;;;;;23.56;48.13;97129.00;3580042;39;20848;-72
2021/07/21 08:27:14;;;;;;;14.33;8.10;;;;;;;23.56;49.57;97129.84;3579215;39;20837;-73
2021/07/21 08:29:44;;;;;;;38.43;8.83;;;;;;;23.94;48.39;97121.97;3580138;39;20965;-72
2021/07/21 08:32:11;;;;;;;27.30;7.30;;;;;;;23.93;46.58;97128.31;3576395;39;20522;-72
2021/07/21 08:34:40;;;;;;;16.20;7.23;;;;;;;23.63;48.02;97129.97;3575559;39;20534;-72
2021/07/21 08:37:08;;;;;;;46.40;8.00;;;;;;;23.38;48.86;97122.06;3577431;40;20478;-73
2021/07/21 08:39:36;;;;;;;30.57;8.90;;;;;;;23.75;48.26;97131.22;3577546;39;20456;-71
2021/07/21 08:42:05;;;;;;;15.80;8.00;;;;;;;22.96;48.83;97131.19;3580984;39;20541;-71
2021/07/21 08:44:35;;;;;;;29.30;8.13;;;;;;;23.91;48.74;97127.66;3578236;39;20461;-71
2021/07/21 08:47:08;;;;;;;25.67;7.77;;;;;;;24.66;46.40;97129.63;3582291;39;20448;-72
2021/07/21 08:49:37;;;;;;;26.83;9.10;;;;;;;24.93;45.96;97129.19;3581881;39;20464;-72
2021/07/21 08:52:07;;;;;;;30.47;8.73;;;;;;;23.76;47.41;97129.41;3579880;39;20463;-72
2021/07/21 08:54:37;;;;;;;25.53;9.00;;;;;;;24.21;45.22;97128.63;3579087;39;20925;-71
2021/07/21 08:57:06;;;;;;;17.70;7.50;;;;;;;24.19;47.35;97127.97;3576440;40;20445;-72
2021/07/21 08:59:35;;;;;;;28.83;8.10;;;;;;;24.81;46.25;97131.50;3582254;39;20457;-71
2021/07/21 09:02:04;;;;;;;18.53;8.40;;;;;;;24.98;45.52;97122.28;3580172;39;20476;-73
2021/07/21 09:04:34;;;;;;;21.07;7.43;;;;;;;25.36;44.10;97119.53;3579256;39;20495;-71
2021/07/21 09:07:02;;;;;;;49.70;9.40;;;;;;;25.85;43.30;97126.94;3579844;39;20835;-72
2021/07/21 09:09:30;;;;;;;20.10;7.73;;;;;;;25.55;42.69;97128.84;3582078;39;21186;-72
2021/07/21 09:11:58;;;;;;;65.07;9.17;;;;;;;25.75;44.03;97123.72;3581482;39;20557;-71
2021/07/21 09:14:27;;;;;;;53.03;8.93;;;;;;;25.11;44.28;97137.72;3579534;39;21161;-72
2021/07/21 09:17:11;;;;;;;28.73;7.77;;;;;;;25.49;43.19;97126.09;3579490;39;20838;-72
2021/07/21 09:19:41;;;;;;;17.53;8.70;;;;;;;25.62;42.58;97134.31;3581666;39;20697;-72
2021/07/21 09:22:18;;;;;;;141.13;80.87;;;;;;;26.12;41.24;97132.59;3579959;39;20445;-72
2021/07/21 09:24:46;;;;;;;27.53;15.23;;;;;;;26.12;42.51;97127.25;3584024;39;20850;-72
2021/07/21 09:27:14;;;;;;;14.37;7.23;;;;;;;26.05;40.85;97137.09;3580474;39;20442;-72
2021/07/21 09:29:43;;;;;;;14.90;8.20;;;;;;;26.14;42.00;97119.84;3579620;39;20469;-72
2021/07/21 09:32:12;;;;;;;21.27;8.47;;;;;;;25.95;42.10;97132.03;3576689;39;20885;-72
2021/07/21 09:34:41;;;;;;;14.03;7.30;;;;;;;24.07;43.07;97132.91;3582405;39;20840;-72
2021/07/21 09:37:12;;;;;;;13.03;8.37;;;;;;;22.56;46.06;97138.25;3581417;39;20561;-71
2021/07/21 09:39:43;;;;;;;18.87;7.63;;;;;;;24.17;46.21;97137.19;3575841;39;20689;-72
2021/07/21 09:42:12;;;;;;;28.63;7.47;;;;;;;25.83;42.92;97133.50;3581867;39;20533;-73
2021/07/21 09:44:43;;;;;;;33.40;7.70;;;;;;;25.95;42.41;97133.88;3581456;39;20460;-72
2021/07/21 09:47:15;;;;;;;19.77;7.90;;;;;;;25.77;42.55;97132.41;3580338;39;20748;-73
2021/07/21 09:49:45;;;;;;;21.90;8.00;;;;;;;25.68;42.82;97124.66;3586202;39;21170;-74
2021/07/21 09:52:20;;;;;;;13.93;8.00;;;;;;;25.70;42.45;97127.97;3578926;39;20450;-73
2021/07/21 09:55:05;;;;;;;20.37;7.73;;;;;;;26.83;40.47;97135.34;3575787;39;20533;-73
2021/07/21 09:57:34;;;;;;;23.63;8.33;;;;;;;27.11;40.72;97125.59;3576399;40;21100;-73
2021/07/21 10:00:17;;;;;;;26.53;7.97;;;;;;;27.29;40.32;97127.81;3577245;39;20465;-73
2021/07/21 10:02:47;;;;;;;17.93;7.63;;;;;;;26.30;40.54;97128.66;3581524;39;20429;-73
2021/07/21 10:05:15;;;;;;;13.87;8.33;;;;;;;26.45;41.33;97132.09;3578602;39;20457;-74
2021/07/21 10:07:50;;;;;;;33.00;8.37;;;;;;;27.02;40.42;97127.59;3578693;39;20763;-73
2021/07/21 10:10:20;;;;;;;21.13;7.87;;;;;;;27.17;40.04;97132.88;3580237;39;20817;-72
2021/07/21 10:13:00;;;;;;;51.70;9.33;;;;;;;28.04;36.48;97139.50;3581890;39;20464;-72
2021/07/21 10:15:28;;;;;;;83.27;10.80;;;;;;;28.28;36.03;97129.19;3582914;39;20453;-73
2021/07/21 10:18:11;;;;;;;18.93;8.27;;;;;;;27.04;39.61;97122.88;3580928;39;20495;-73
2021/07/21 10:20:41;;;;;;;26.53;7.33;;;;;;;28.05;37.94;97132.25;3579729;39;20915;-74
2021/07/21 10:23:10;;;;;;;11.47;7.33;;;;;;;25.26;41.32;97138.56;3581666;39;20449;-73
2021/07/21 10:25:39;;;;;;;16.33;6.03;;;;;;;26.86;41.18;97139.50;3580237;39;20824;-73
2021/07/21 10:28:08;;;;;;;19.13;7.20;;;;;;;27.78;39.25;97121.41;3583452;39;20731;-72
2021/07/21 10:30:40;;;;;;;15.33;8.00;;;;;;;27.92;37.56;97133.06;3579060;39;20444;-73
2021/07/21 10:33:10;;;;;;;19.30;12.83;;;;;;;26.39;40.03;97135.56;3582213;39;20867;-74
2021/07/21 10:35:39;;;;;;;15.37;8.00;;;;;;;26.90;37.25;97134.56;3582993;39;20470;-72
2021/07/21 10:38:07;;;;;;;10.37;8.13;;;;;;;27.48;37.39;97136.97;3585928;39;20424;-72
2021/07/21 10:40:36;;;;;;;14.10;7.80;;;;;;;27.68;36.92;97129.84;3580269;39;20884;-72
2021/07/21 10:43:06;;;;;;;16.33;6.60;;;;;;;28.16;35.95;97131.66;3579398;39;20519;-73
2021/07/21 10:45:36;;;;;;;26.50;11.93;;;;;;;28.30;37.20;97132.50;3576781;39;20912;-72
2021/07/21 10:48:16;;;;;;;29.87;19.07;;;;;;;28.71;35.56;97132.34;3579870;39;20936;-72
2021/07/21 10:50:57;;;;;;;8.43;6.33;;;;;;;27.81;36.91;97132.59;3580413;39;20485;-73
2021/07/21 10:53:44;;;;;;;20.53;7.97;;;;;;;28.51;36.41;97132.34;3575981;39;20498;-74
2021/07/21 10:59:20;;;;;;;12.03;7.07;;;;;;;29.63;34.12;97123.47;3580114;39;20569;-73
2021/07/21 11:01:50;;;;;;;14.03;6.83;;;;;;;29.57;34.38;97127.84;3580681;39;20917;-74
2021/07/21 11:04:20;;;;;;;10.83;7.80;;;;;;;25.98;39.01;97136.19;3579900;39;20585;-74
2021/07/21 11:06:52;;;;;;;12.60;7.73;;;;;;;27.73;37.77;97105.84;3580605;39;20580;-73
2021/07/21 11:09:24;;;;;;;16.47;9.13;;;;;;;26.55;36.06;97121.84;3578001;39;20848;-72
2021/07/21 11:11:57;;;;;;;15.13;7.83;;;;;;;26.07;38.31;97121.63;3581739;39;20453;-73
2021/07/21 11:14:27;;;;;;;20.20;8.47;;;;;;;25.74;39.46;97122.06;3579483;39;20479;-73
2021/07/21 11:16:57;;;;;;;17.10;9.40;;;;;;;26.37;37.55;97121.50;3580615;39;20659;-73
2021/07/21 11:19:33;;;;;;;14.90;7.90;;;;;;;26.08;38.04;97109.88;3578629;39;20817;-73
2021/07/21 11:22:08;;;;;;;16.93;7.93;;;;;;;26.39;37.85;97114.91;3579388;39;20888;-72
2021/07/21 11:25:10;;;;;;;17.70;7.87;;;;;;;27.80;37.29;97119.34;3580908;39;20812;-74
2021/07/21 11:27:40;;;;;;;21.33;8.10;;;;;;;28.86;35.76;97117.84;3580164;39;20684;-74
2021/07/21 11:30:34;;;;;;;12.60;7.47;;;;;;;30.22;33.36;97105.34;3574764;39;20490;-72
2021/07/21 11:33:41;;;;;;;12.93;8.33;;;;;;;29.46;32.23;97109.63;3578115;39;20437;-73
2021/07/21 11:36:10;;;;;;;12.53;7.20;;;;;;;29.85;32.84;97105.94;3579450;39;20460;-73
2021/07/21 11:38:50;;;;;;;14.00;7.77;;;;;;;30.42;32.95;97108.72;3596052;39;20556;-73
2021/07/21 11:41:49;;;;;;;11.37;8.50;;;;;;;30.80;32.15;97102.41;3579129;39;20737;-73
2021/07/21 11:44:23;;;;;;;14.07;7.63;;;;;;;28.67;34.53;97106.03;3578792;39;20820;-72